Latest Weather Observations for Roxby Downs

IDS60801

Issued at 10:51 am CST Tuesday 16 August 2022 (issued every 10 minutes, with the page automatically refreshed every 10 minutes)

About weather observations | Map of weather stations | Latest weather observations for SA | Other Formats
Station Details ID: 016096 Name: OLYMPIC DAM AERODROME Lat: -30.49 Lon: 136.87 Height: 99.21 m
Data from the previous 72 hours. | See also: Recent months at Roxby Downs
Date/Time
CST
Temp
°C
App
Temp
°C
Dew
Point
°C
Rel
Hum
%
Delta-T
°C
Wind Press
QNH
hPa
Press
MSL
hPa
Rain since
9am
mm
Dir  Spd
km/h
Gust
km/h
Spd
kts
Gust
kts
16/10:30am 14.5 10.5 6.6 59 3.8 S 17 28 9 15 1022.7 1022.8 0.0
16/10:00am 13.5 9.6 7.3 66 3.0 S 17 28 9 15 1022.9 1023.0 0.0
16/09:30am 11.9 7.6 7.2 73 2.3 SSW 19 24 10 13 1022.7 1022.8 0.0
16/09:00am 10.6 6.7 7.3 80 1.6 SSW 17 24 9 13 1022.5 1022.6 0.0
16/08:30am 9.2 5.7 7.2 87 0.9 SW 15 22 8 12 1022.1 1022.2 0.0
16/08:00am 7.3 4.4 6.7 96 0.3 SW 11 15 6 8 1021.9 1022.0 0.0
16/07:30am 6.0 2.9 5.4 96 0.3 WSW 11 13 6 7 1021.4 1021.4 0.0
16/07:00am 5.3 1.6 4.7 96 0.3 WSW 13 13 7 7 1021.0 1021.0 0.0
16/06:30am 5.6 2.4 4.9 95 0.3 WSW 11 13 6 7 1020.6 1020.6 0.0
16/06:00am 5.6 2.7 4.9 95 0.3 SW 9 13 5 7 1020.0 1020.0 0.0
16/05:30am 5.7 3.4 4.8 94 0.4 SW 6 9 3 5 1019.6 1019.6 0.0
16/05:00am 6.2 3.8 5.2 93 0.4 WSW 7 9 4 5 1019.4 1019.4 0.0
16/04:30am 6.7 3.6 5.7 93 0.4 WSW 11 15 6 8 1019.0 1019.0 0.0
16/04:00am 6.8 3.3 5.6 92 0.5 WSW 13 15 7 8 1018.8 1018.8 0.0
16/03:30am 6.7 3.5 5.3 91 0.6 WSW 11 15 6 8 1018.8 1018.8 0.0
16/03:00am 7.1 4.3 5.1 87 0.9 WSW 9 11 5 6 1019.0 1019.0 0.0
16/02:30am 7.9 4.5 5.7 86 1.0 WSW 13 17 7 9 1019.0 1019.0 0.0
16/02:00am 8.5 5.1 6.0 84 1.1 WSW 13 19 7 10 1019.2 1019.2 0.0
16/01:30am 9.0 5.6 6.1 82 1.3 SW 13 17 7 9 1019.4 1019.4 0.0
16/01:00am 9.4 5.3 6.1 80 1.5 SW 17 22 9 12 1019.1 1019.1 0.0
16/12:30am 9.5 6.1 5.9 78 1.7 SW 13 17 7 9 1019.1 1019.1 0.0
16/12:00am 10.2 6.1 6.0 75 1.9 SW 17 20 9 11 1018.9 1018.9 0.0
 
Date/Time
CST
Temp
°C
App
Temp
°C
Dew
Point
°C
Rel
Hum
%
Delta-T
°C
Wind Press
QNH
hPa
Press
MSL
hPa
Rain since
9am
mm
Dir  Spd
km/h
Gust
km/h
Spd
kts
Gust
kts
15/11:30pm 10.6 7.2 5.8 72 2.2 SW 13 19 7 10 1018.9 1018.9 0.0
15/11:00pm 11.0 6.2 5.5 69 2.5 SW 20 28 11 15 1018.4 1018.4 0.0
15/10:30pm 11.6 6.7 5.3 65 2.9 SW 20 28 11 15 1018.6 1018.6 0.0
15/10:00pm 12.1 6.9 5.3 63 3.2 SW 22 35 12 19 1018.4 1018.4 0.0
15/09:30pm 12.9 6.1 5.1 59 3.6 SW 30 41 16 22 1018.0 1018.0 0.0
15/09:00pm 13.3 6.5 5.0 57 3.9 SW 30 44 16 24 1017.8 1017.8 0.0
15/08:30pm 13.7 6.4 4.3 53 4.3 SW 32 44 17 24 1017.3 1017.3 0.0
15/08:19pm 13.9 6.9 4.2 52 4.5 SW 30 48 16 26 1017.1 1017.1 0.0
15/08:00pm 14.4 6.5 4.4 51 4.6 SW 35 50 19 27 1016.8 1016.8 0.0
15/07:30pm 14.6 7.3 4.6 51 4.7 SW 32 46 17 25 1016.1 1016.1 0.0
15/07:00pm 15.3 8.0 5.5 52 4.7 SW 33 43 18 23 1015.7 1015.7 0.0
15/06:30pm 15.8 8.8 6.0 52 4.7 SW 32 44 17 24 1015.2 1015.2 0.0
15/06:00pm 16.3 8.8 6.2 51 4.9 SW 35 46 19 25 1014.7 1014.7 0.0
15/05:33pm 17.1 9.9 5.7 47 5.5 SW 33 52 18 28 1014.3 1014.3 0.0
15/05:30pm 17.2 10.0 5.8 47 5.6 SW 33 50 18 27 1014.2 1014.2 0.0
15/05:11pm 17.4 9.5 6.0 47 5.6 WSW 37 56 20 30 1013.9 1013.9 0.0
15/05:00pm 17.5 9.9 5.8 46 5.7 WSW 35 50 19 27 1013.7 1013.7 0.0
15/04:30pm 18.3 10.3 5.8 44 6.1 WSW 37 52 20 28 1013.3 1013.3 0.0
15/04:00pm 18.6 11.3 5.5 42 6.4 WSW 33 52 18 28 1013.2 1013.2 0.0
15/03:34pm 18.6 11.5 5.5 42 6.4 WSW 32 50 17 27 1013.3 1013.3 0.0
15/03:30pm 18.6 11.3 5.5 42 6.4 SW 33 50 18 27 1013.3 1013.3 0.0
15/03:17pm 18.2 10.5 5.4 43 6.2 WSW 35 54 19 29 1013.3 1013.3 0.0
15/03:00pm 18.8 11.5 5.6 42 6.5 WSW 33 46 18 25 1013.6 1013.6 0.0
15/02:51pm 18.2 10.6 5.8 44 6.1 SW 35 48 19 26 1013.6 1013.6 0.0
15/02:30pm 17.6 9.6 5.5 45 5.9 WSW 37 50 20 27 1013.8 1013.8 0.0
15/02:00pm 18.0 10.6 5.2 43 6.2 WSW 33 46 18 25 1013.8 1013.8 0.0
15/01:30pm 18.0 10.8 4.9 42 6.3 WSW 32 50 17 27 1014.1 1014.1 0.0
15/01:26pm 18.2 10.9 4.7 41 6.5 SW 32 50 17 27 1014.2 1014.2 0.0
15/01:00pm 18.0 10.8 4.9 42 6.3 WSW 32 46 17 25 1014.2 1014.2 0.0
15/12:44pm 18.3 11.1 5.2 42 6.4 SW 32 50 17 27 1014.4 1014.4 0.0
15/12:30pm 17.5 10.3 4.8 43 6.1 WSW 32 41 17 22 1014.4 1014.4 0.0
15/12:15pm 17.7 10.5 5.0 43 6.1 SW 32 50 17 27 1014.5 1014.5 0.0
15/12:00pm 17.7 10.5 5.0 43 6.1 WSW 32 46 17 25 1014.6 1014.6 0.0
15/11:30am 16.8 9.0 4.8 45 5.7 WSW 35 48 19 26 1014.8 1014.8 0.0
15/11:00am 15.9 8.3 5.8 51 4.9 SW 35 44 19 24 1015.3 1015.3 0.0
15/10:40am 15.6 8.6 6.1 53 4.6 SW 32 50 17 27 1015.2 1015.2 0.0
15/10:30am 15.8 8.7 6.3 53 4.6 SW 33 50 18 27 1015.3 1015.3 0.0
15/10:00am 15.0 9.1 7.5 61 3.7 SW 28 43 15 23 1015.4 1015.4 0.0
15/09:30am 13.9 8.2 8.3 69 2.8 WSW 28 39 15 21 1015.2 1015.2 0.0
15/09:00am 13.1 7.9 8.8 75 2.2 WSW 26 35 14 19 1015.2 1015.2 0.0
15/08:30am 12.2 7.4 8.7 79 1.7 WSW 24 35 13 19 1015.2 1015.2 0.0
15/08:00am 11.2 7.1 8.6 84 1.3 WSW 20 30 11 16 1014.9 1014.9 0.0
15/07:30am 8.7 5.5 7.0 89 0.8 WSW 13 15 7 8 1014.4 1014.4 0.0
15/07:00am 7.5 4.3 5.0 84 1.1 W 11 15 6 8 1014.2 1014.2 0.0
15/06:30am 7.9 3.8 4.3 78 1.6 W 15 17 8 9 1013.9 1013.9 0.0
15/06:00am 8.3 4.4 3.4 71 2.1 W 13 15 7 8 1013.9 1013.9 0.0
15/05:30am 9.2 3.9 3.0 65 2.7 W 20 24 11 13 1013.5 1013.5 0.0
15/05:00am 9.4 4.4 3.4 66 2.6 NW 19 24 10 13 1013.2 1013.2 0.0
15/04:30am 10.7 6.5 3.7 62 3.1 NNW 15 20 8 11 1013.0 1013.0 0.0
15/04:00am 10.9 6.0 3.9 62 3.1 N 19 24 10 13 1012.9 1012.9 0.0
15/03:30am 8.9 5.3 2.9 66 2.6 N 11 15 6 8 1013.2 1013.2 0.0
15/03:00am 9.0 5.4 3.0 66 2.6 N 11 13 6 7 1013.3 1013.3 0.0
15/02:30am 7.5 4.2 2.4 70 2.1 NNE 9 11 5 6 1013.7 1013.7 0.0
15/02:00am 8.0 4.7 2.3 67 2.4 NNE 9 11 5 6 1013.8 1013.8 0.0
15/01:30am 8.8 5.5 2.2 63 2.8 N 9 11 5 6 1014.0 1014.0 0.0
15/01:00am 9.9 5.8 2.5 60 3.2 N 13 15 7 8 1014.3 1014.3 0.0
15/12:30am 9.8 6.5 2.6 61 3.1 NNE 9 9 5 5 1014.5 1014.5 0.0
15/12:00am 10.3 7.1 2.9 60 3.2 NNE 9 11 5 6 1014.7 1014.7 0.0
 
Date/Time
CST
Temp
°C
App
Temp
°C
Dew
Point
°C
Rel
Hum
%
Delta-T
°C
Wind Press
QNH
hPa
Press
MSL
hPa
Rain since
9am
mm
Dir  Spd
km/h
Gust
km/h
Spd
kts
Gust
kts
14/11:30pm 9.7 7.1 3.0 63 2.9 NNE 6 7 3 4 1015.3 1015.3 0.0
14/11:00pm 9.1 6.5 3.1 66 2.6 NNE 6 7 3 4 1015.7 1015.7 0.0
14/10:30pm 8.0 5.1 2.7 69 2.2 NNE 7 9 4 5 1015.9 1015.9 0.0
14/10:00pm 7.8 5.0 3.3 73 1.9 NNE 7 9 4 5 1015.8 1015.8 0.0
14/09:30pm 8.5 5.9 3.1 69 2.3 NNE 6 6 3 3 1016.0 1016.0 0.0
14/09:00pm 8.5 5.7 3.1 69 2.3 NNE 7 9 4 5 1015.9 1015.9 0.0
14/08:30pm 8.9 7.1 3.5 69 2.3 NNE 2 9 1 5 1015.8 1015.8 0.0
14/08:00pm 9.4 8.0 3.8 68 2.5 CALM 0 0 0 0 1015.9 1015.9 0.0
14/07:30pm 10.5 9.1 3.8 63 3.0 CALM 0 0 0 0 1015.9 1015.9 0.0
14/07:00pm 11.6 8.9 2.9 55 3.8 WSW 6 7 3 4 1015.7 1015.7 0.0
14/06:30pm 14.1 10.7 2.0 44 5.3 W 9 9 5 5 1015.5 1015.5 0.0
14/06:00pm 15.3 11.8 1.4 39 6.1 W 9 13 5 7 1015.4 1015.4 0.0
14/05:30pm 16.9 12.2 1.0 34 7.0 W 15 24 8 13 1015.5 1015.5 0.0
14/05:00pm 17.3 11.7 0.9 33 7.2 W 20 26 11 14 1015.4 1015.4 0.0
14/04:30pm 17.8 13.0 0.5 31 7.6 W 15 24 8 13 1015.3 1015.3 0.0
14/04:00pm 17.6 11.9 0.7 32 7.5 WNW 20 28 11 15 1015.3 1015.3 0.0
14/03:30pm 17.8 12.5 1.7 34 7.3 W 19 28 10 15 1015.7 1015.7 0.0
14/03:00pm 17.2 12.2 1.2 34 7.1 NW 17 26 9 14 1016.0 1016.0 0.0
14/02:30pm 17.7 13.2 2.1 35 7.1 NW 15 24 8 13 1016.3 1016.3 0.0
14/02:00pm 17.2 12.3 2.0 36 6.9 WNW 17 24 9 13 1016.8 1016.8 0.0
14/01:30pm 16.4 11.5 2.1 38 6.4 W 17 28 9 15 1017.2 1017.2 0.0
14/01:00pm 16.0 11.9 2.4 40 6.1 W 13 22 7 12 1018.0 1018.0 0.0
14/12:30pm 15.4 10.7 2.9 43 5.7 WSW 17 24 9 13 1018.5 1018.5 0.0
14/12:00pm 14.4 10.4 2.6 45 5.3 WSW 13 20 7 11 1018.8 1018.8 0.0
14/11:30am 14.4 9.8 3.5 48 4.9 W 17 26 9 14 1019.4 1019.4 0.0
14/11:00am 13.5 9.3 3.8 52 4.4 WSW 15 20 8 11 1019.9 1019.9 0.0
14/10:30am 12.8 8.6 4.0 55 4.0 W 15 20 8 11 1019.9 1019.9 0.0
14/10:00am 12.3 8.4 5.2 62 3.3 W 15 19 8 10 1020.0 1020.0 0.0
14/09:30am 11.2 7.6 4.9 65 2.9 W 13 17 7 9 1020.0 1020.0 0.0
14/09:00am 9.3 5.6 4.7 73 2.1 WSW 13 17 7 9 1019.9 1019.9 0.0
14/08:30am 7.3 3.5 3.9 79 1.5 W 13 17 7 9 1019.5 1019.5 0.0
14/08:00am 5.7 1.8 3.4 85 1.0 W 13 15 7 8 1019.3 1019.3 0.0
14/07:30am 3.7 0.0 2.1 89 0.6 W 11 13 6 7 1019.0 1019.0 0.0
14/07:00am 2.9 -0.6 1.1 88 0.7 W 9 11 5 6 1018.8 1018.8 0.0
14/06:30am 3.1 -0.8 1.0 86 0.8 W 11 11 6 6 1018.4 1018.4 0.0
14/06:00am 3.2 -0.7 0.9 85 0.9 W 11 13 6 7 1018.4 1018.4 0.0
14/05:30am 3.5 -0.8 0.9 83 1.0 W 13 15 7 8 1018.0 1018.0 0.0
14/05:00am 3.8 -0.2 0.8 81 1.2 WNW 11 13 6 7 1018.1 1018.1 0.0
14/04:30am 4.1 -0.2 1.0 80 1.2 W 13 17 7 9 1018.1 1018.1 0.0
14/04:00am 4.2 0.2 0.7 78 1.4 W 11 13 6 7 1018.1 1018.1 0.0
14/03:30am 4.9 0.6 0.9 75 1.6 W 13 13 7 7 1018.0 1018.0 0.0
14/03:00am 5.1 0.8 0.7 73 1.7 W 13 15 7 8 1018.1 1018.1 0.0
14/02:30am 5.9 2.0 1.1 71 1.9 W 11 15 6 8 1018.0 1018.0 0.0
14/02:00am 6.2 2.3 1.1 70 2.0 WSW 11 13 6 7 1018.2 1018.2 0.0
14/01:30am 7.4 3.5 1.0 64 2.6 SW 11 11 6 6 1018.4 1018.4 0.0
14/01:00am 8.4 4.5 1.1 60 3.0 SW 11 13 6 7 1018.7 1018.7 0.0
14/12:30am 9.3 5.0 1.0 56 3.4 SW 13 17 7 9 1019.0 1019.0 0.0
14/12:00am 9.9 5.6 1.0 54 3.7 WSW 13 17 7 9 1019.2 1019.2 0.0
 
Date/Time
CST
Temp
°C
App
Temp
°C
Dew
Point
°C
Rel
Hum
%
Delta-T
°C
Wind Press
QNH
hPa
Press
MSL
hPa
Rain since
9am
mm
Dir  Spd
km/h
Gust
km/h
Spd
kts
Gust
kts
13/11:30pm 11.1 6.0 0.8 49 4.3 WSW 17 22 9 12 1019.2 1019.2 0.0
13/11:00pm 12.4 7.4 1.1 46 4.8 WSW 17 22 9 12 1019.1 1019.1 0.0
13/10:30pm 12.5 7.5 1.2 46 4.8 WSW 17 24 9 13 1019.1 1019.1 0.0
13/10:00pm 12.5 7.9 1.5 47 4.7 WSW 15 24 8 13 1019.1 1019.1 0.0
13/09:30pm 12.9 7.3 1.3 45 5.0 WSW 20 32 11 17 1019.2 1019.2 0.0
13/09:00pm 13.0 7.4 1.4 45 5.0 SW 20 35 11 19 1019.4 1019.4 0.0
13/08:30pm 13.2 6.8 1.2 44 5.1 SW 24 35 13 19 1019.3 1019.3 0.0
13/08:00pm 13.3 7.3 1.3 44 5.2 WSW 22 32 12 17 1019.1 1019.1 0.0
13/07:30pm 13.3 7.8 1.6 45 5.0 WSW 20 26 11 14 1019.0 1019.0 0.0
13/07:00pm 13.3 7.8 1.6 45 5.1 WSW 20 30 11 16 1018.6 1018.6 0.0
13/06:30pm 12.9 7.6 1.6 46 4.9 WSW 19 28 10 15 1018.3 1018.3 0.0
13/06:00pm 13.0 7.4 1.4 45 5.0 WSW 20 30 11 16 1018.0 1018.0 0.0
13/05:30pm 13.6 6.5 1.6 44 5.2 WSW 28 39 15 21 1018.0 1018.0 0.0
13/05:00pm 13.9 7.2 1.5 43 5.4 WSW 26 35 14 19 1017.9 1017.9 0.0
13/04:30pm 15.5 8.4 1.3 38 6.2 WSW 28 44 15 24 1017.6 1017.6 0.0
13/04:00pm 16.1 8.9 0.7 35 6.7 SW 28 43 15 23 1017.6 1017.6 0.0
13/03:30pm 16.2 9.4 1.1 36 6.6 SW 26 37 14 20 1017.6 1017.6 0.0
13/03:00pm 15.8 9.1 1.5 38 6.3 WSW 26 33 14 18 1017.7 1017.7 0.0
13/02:30pm 16.0 9.0 1.7 38 6.3 WSW 28 41 15 22 1017.9 1017.9 0.0
13/02:15pm 16.2 9.2 2.2 39 6.3 W 28 50 15 27 1017.8 1017.8 0.0
13/02:00pm 15.2 7.8 2.1 41 5.8 WSW 30 39 16 21 1018.2 1018.2 0.0
13/01:30pm 15.4 8.4 1.9 40 6.0 SW 28 37 15 20 1018.3 1018.3 0.0
13/01:00pm 15.7 9.9 2.5 41 5.9 WSW 22 33 12 18 1018.7 1018.7 0.0
13/12:30pm 14.9 8.4 2.8 44 5.4 SW 26 35 14 19 1019.0 1019.0 0.0
13/12:00pm 14.6 7.7 2.8 45 5.3 SW 28 37 15 20 1019.5 1019.5 0.0
13/11:30am 14.6 8.3 3.7 48 5.0 SW 26 37 14 20 1019.8 1019.8 0.0
13/11:00am 13.6 6.9 3.7 51 4.5 SW 28 43 15 23 1020.2 1020.2 0.0

Other formats

Comma delimited format used in spreadsheet applications
http://www.bom.gov.au/fwo/IDS60801/IDS60801.95658.axf

JavaScript Object Notation format (JSON) in row-major order
http://www.bom.gov.au/fwo/IDS60801/IDS60801.95658.json

Data quality

Most of these data are generated automatically and are frequently updated. Quality checks on data are not normally performed. It is possible for incorrect values to appear. Refer to information at About Latest Weather Observations and please check the disclaimer before using these data.